sensor_id;sensor_type;location;lat;lon;timestamp;pressure;altitude;pressure_sealevel;temperature;humidity
70971;BME280;58632;51.718;19.446;2023-10-13T00:01:18;99580.48;;;13.86;100.00
70971;BME280;58632;51.718;19.446;2023-10-13T00:03:44;99581.35;;;13.84;100.00
70971;BME280;58632;51.718;19.446;2023-10-13T00:06:12;99584.67;;;13.84;100.00
70971;BME280;58632;51.718;19.446;2023-10-13T00:08:37;99584.85;;;13.85;100.00
70971;BME280;58632;51.718;19.446;2023-10-13T00:11:03;99583.11;;;13.85;100.00
70971;BME280;58632;51.718;19.446;2023-10-13T00:13:34;99581.45;;;13.87;100.00
70971;BME280;58632;51.718;19.446;2023-10-13T00:16:17;99587.46;;;13.89;100.00
70971;BME280;58632;51.718;19.446;2023-10-13T00:18:46;99583.04;;;13.91;100.00
70971;BME280;58632;51.718;19.446;2023-10-13T00:21:13;99586.50;;;13.91;100.00
70971;BME280;58632;51.718;19.446;2023-10-13T00:23:39;99581.27;;;13.92;100.00
70971;BME280;58632;51.718;19.446;2023-10-13T00:26:08;99584.69;;;13.93;100.00
70971;BME280;58632;51.718;19.446;2023-10-13T00:28:34;99585.27;;;13.94;100.00
70971;BME280;58632;51.718;19.446;2023-10-13T00:31:12;99590.56;;;13.95;100.00
70971;BME280;58632;51.718;19.446;2023-10-13T00:33:39;99589.88;;;13.98;100.00
70971;BME280;58632;51.718;19.446;2023-10-13T00:36:07;99587.18;;;14.01;100.00
70971;BME280;58632;51.718;19.446;2023-10-13T00:38:33;99586.69;;;14.01;100.00
70971;BME280;58632;51.718;19.446;2023-10-13T00:41:00;99587.34;;;14.01;100.00
70971;BME280;58632;51.718;19.446;2023-10-13T00:43:44;99583.63;;;14.00;100.00
70971;BME280;58632;51.718;19.446;2023-10-13T00:46:10;99582.95;;;13.98;100.00
70971;BME280;58632;51.718;19.446;2023-10-13T00:48:38;99574.61;;;13.95;100.00
70971;BME280;58632;51.718;19.446;2023-10-13T00:51:09;99564.98;;;13.92;100.00
70971;BME280;58632;51.718;19.446;2023-10-13T00:53:46;99559.27;;;13.89;100.00
70971;BME280;58632;51.718;19.446;2023-10-13T00:56:13;99566.48;;;13.89;100.00
70971;BME280;58632;51.718;19.446;2023-10-13T00:58:47;99562.46;;;13.91;100.00
70971;BME280;58632;51.718;19.446;2023-10-13T01:01:20;99558.77;;;13.89;100.00
70971;BME280;58632;51.718;19.446;2023-10-13T01:07:07;99570.67;;;13.92;100.00
70971;BME280;58632;51.718;19.446;2023-10-13T01:09:39;99572.86;;;13.95;100.00
70971;BME280;58632;51.718;19.446;2023-10-13T01:12:05;99568.64;;;13.95;100.00
70971;BME280;58632;51.718;19.446;2023-10-13T01:14:30;99564.45;;;13.92;100.00
70971;BME280;58632;51.718;19.446;2023-10-13T01:16:56;99562.33;;;13.87;100.00
70971;BME280;58632;51.718;19.446;2023-10-13T01:19:23;99560.98;;;13.81;100.00
70971;BME280;58632;51.718;19.446;2023-10-13T01:21:53;99568.48;;;13.77;100.00
70971;BME280;58632;51.718;19.446;2023-10-13T01:24:26;99576.61;;;13.78;100.00
70971;BME280;58632;51.718;19.446;2023-10-13T01:26:56;99574.22;;;13.79;100.00
70971;BME280;58632;51.718;19.446;2023-10-13T01:29:33;99571.02;;;13.82;100.00
70971;BME280;58632;51.718;19.446;2023-10-13T01:31:59;99569.11;;;13.84;100.00
70971;BME280;58632;51.718;19.446;2023-10-13T01:34:24;99571.80;;;13.88;100.00
70971;BME280;58632;51.718;19.446;2023-10-13T01:36:53;99571.33;;;13.90;100.00
70971;BME280;58632;51.718;19.446;2023-10-13T01:39:22;99576.56;;;13.92;100.00
70971;BME280;58632;51.718;19.446;2023-10-13T01:41:52;99580.63;;;13.94;100.00
70971;BME280;58632;51.718;19.446;2023-10-13T01:44:24;99582.15;;;13.95;100.00
70971;BME280;58632;51.718;19.446;2023-10-13T01:49:25;99587.48;;;13.98;100.00
70971;BME280;58632;51.718;19.446;2023-10-13T01:54:44;99586.77;;;13.94;100.00
70971;BME280;58632;51.718;19.446;2023-10-13T01:57:16;99592.17;;;13.94;100.00
70971;BME280;58632;51.718;19.446;2023-10-13T01:59:46;99589.09;;;13.96;100.00
70971;BME280;58632;51.718;19.446;2023-10-13T02:02:13;99590.31;;;13.97;100.00
70971;BME280;58632;51.718;19.446;2023-10-13T02:04:41;99590.11;;;13.96;100.00
70971;BME280;58632;51.718;19.446;2023-10-13T02:07:21;99597.79;;;13.92;100.00
70971;BME280;58632;51.718;19.446;2023-10-13T02:09:51;99589.77;;;13.89;100.00
70971;BME280;58632;51.718;19.446;2023-10-13T02:12:20;99592.77;;;13.90;100.00
70971;BME280;58632;51.718;19.446;2023-10-13T02:14:50;99589.91;;;13.92;100.00
70971;BME280;58632;51.718;19.446;2023-10-13T02:17:16;99592.63;;;13.96;100.00
70971;BME280;58632;51.718;19.446;2023-10-13T02:19:41;99592.65;;;13.99;100.00
70971;BME280;58632;51.718;19.446;2023-10-13T02:22:10;99586.25;;;13.98;100.00
70971;BME280;58632;51.718;19.446;2023-10-13T02:24:37;99586.71;;;13.95;100.00
70971;BME280;58632;51.718;19.446;2023-10-13T02:27:08;99588.68;;;13.92;100.00
70971;BME280;58632;51.718;19.446;2023-10-13T02:29:40;99587.77;;;13.89;100.00
70971;BME280;58632;51.718;19.446;2023-10-13T02:32:06;99585.58;;;13.83;100.00
70971;BME280;58632;51.718;19.446;2023-10-13T02:34:38;99586.36;;;13.80;100.00
70971;BME280;58632;51.718;19.446;2023-10-13T02:37:09;99587.98;;;13.77;100.00
70971;BME280;58632;51.718;19.446;2023-10-13T02:39:35;99591.09;;;13.73;100.00
70971;BME280;58632;51.718;19.446;2023-10-13T02:42:01;99590.21;;;13.67;100.00
70971;BME280;58632;51.718;19.446;2023-10-13T02:44:32;99587.23;;;13.63;100.00
70971;BME280;58632;51.718;19.446;2023-10-13T02:46:58;99590.80;;;13.63;100.00
70971;BME280;58632;51.718;19.446;2023-10-13T02:52:02;99593.10;;;13.56;100.00
70971;BME280;58632;51.718;19.446;2023-10-13T02:57:21;99590.48;;;13.55;100.00
70971;BME280;58632;51.718;19.446;2023-10-13T02:59:47;99587.58;;;13.55;100.00
70971;BME280;58632;51.718;19.446;2023-10-13T03:02:13;99592.83;;;13.52;100.00
70971;BME280;58632;51.718;19.446;2023-10-13T03:04:54;99592.45;;;13.47;100.00
70971;BME280;58632;51.718;19.446;2023-10-13T03:07:46;99590.30;;;13.34;100.00
70971;BME280;58632;51.718;19.446;2023-10-13T03:10:11;99586.70;;;13.25;100.00
70971;BME280;58632;51.718;19.446;2023-10-13T03:12:38;99584.36;;;13.21;100.00
70971;BME280;58632;51.718;19.446;2023-10-13T03:15:04;99585.06;;;13.13;100.00
70971;BME280;58632;51.718;19.446;2023-10-13T03:17:35;99592.39;;;13.07;100.00
70971;BME280;58632;51.718;19.446;2023-10-13T03:20:01;99593.92;;;12.98;100.00
70971;BME280;58632;51.718;19.446;2023-10-13T03:22:28;99598.25;;;12.91;100.00
70971;BME280;58632;51.718;19.446;2023-10-13T03:25:00;99602.59;;;12.85;100.00
70971;BME280;58632;51.718;19.446;2023-10-13T03:27:30;99599.15;;;12.76;100.00
70971;BME280;58632;51.718;19.446;2023-10-13T03:30:05;99604.78;;;12.68;100.00
70971;BME280;58632;51.718;19.446;2023-10-13T03:32:36;99602.10;;;12.63;100.00
70971;BME280;58632;51.718;19.446;2023-10-13T03:35:15;99600.44;;;12.58;100.00
70971;BME280;58632;51.718;19.446;2023-10-13T03:38:13;99599.48;;;12.56;100.00
70971;BME280;58632;51.718;19.446;2023-10-13T03:40:52;99600.58;;;12.54;100.00
70971;BME280;58632;51.718;19.446;2023-10-13T03:43:37;99597.25;;;12.50;100.00
70971;BME280;58632;51.718;19.446;2023-10-13T03:46:10;99597.62;;;12.47;100.00
70971;BME280;58632;51.718;19.446;2023-10-13T03:48:36;99598.52;;;12.43;100.00
70971;BME280;58632;51.718;19.446;2023-10-13T03:51:26;99597.64;;;12.41;100.00
70971;BME280;58632;51.718;19.446;2023-10-13T03:53:56;99599.84;;;12.41;100.00
70971;BME280;58632;51.718;19.446;2023-10-13T03:56:25;99605.40;;;12.40;100.00
70971;BME280;58632;51.718;19.446;2023-10-13T03:58:52;99605.71;;;12.38;100.00
70971;BME280;58632;51.718;19.446;2023-10-13T04:01:19;99608.78;;;12.34;100.00
70971;BME280;58632;51.718;19.446;2023-10-13T04:03:50;99595.41;;;12.33;100.00
70971;BME280;58632;51.718;19.446;2023-10-13T04:09:27;99586.98;;;12.25;100.00
70971;BME280;58632;51.718;19.446;2023-10-13T04:11:56;99579.67;;;12.25;100.00
70971;BME280;58632;51.718;19.446;2023-10-13T04:14:34;99577.95;;;12.23;100.00
70971;BME280;58632;51.718;19.446;2023-10-13T04:17:18;99571.35;;;12.18;100.00
70971;BME280;58632;51.718;19.446;2023-10-13T04:19:53;99575.09;;;12.13;100.00
70971;BME280;58632;51.718;19.446;2023-10-13T04:22:34;99572.59;;;12.12;100.00
70971;BME280;58632;51.718;19.446;2023-10-13T04:28:05;99574.94;;;12.14;100.00
70971;BME280;58632;51.718;19.446;2023-10-13T04:33:30;99573.61;;;12.22;100.00
70971;BME280;58632;51.718;19.446;2023-10-13T04:36:02;99577.38;;;12.22;100.00
70971;BME280;58632;51.718;19.446;2023-10-13T04:38:40;99576.08;;;12.17;100.00
70971;BME280;58632;51.718;19.446;2023-10-13T04:41:25;99575.05;;;12.16;100.00
70971;BME280;58632;51.718;19.446;2023-10-13T04:43:57;99576.46;;;12.21;100.00
70971;BME280;58632;51.718;19.446;2023-10-13T04:46:29;99577.94;;;12.18;100.00
70971;BME280;58632;51.718;19.446;2023-10-13T04:49:01;99578.77;;;12.15;100.00
70971;BME280;58632;51.718;19.446;2023-10-13T04:51:36;99577.71;;;12.14;100.00
70971;BME280;58632;51.718;19.446;2023-10-13T04:54:17;99570.71;;;12.13;100.00
70971;BME280;58632;51.718;19.446;2023-10-13T04:56:52;99569.46;;;12.12;100.00
70971;BME280;58632;51.718;19.446;2023-10-13T05:00:02;99575.56;;;12.09;100.00
70971;BME280;58632;51.718;19.446;2023-10-13T05:02:34;99577.48;;;12.10;100.00
70971;BME280;58632;51.718;19.446;2023-10-13T05:05:03;99575.89;;;12.12;100.00
70971;BME280;58632;51.718;19.446;2023-10-13T05:07:38;99577.77;;;12.12;100.00
70971;BME280;58632;51.718;19.446;2023-10-13T05:10:22;99574.05;;;12.08;100.00
70971;BME280;58632;51.718;19.446;2023-10-13T05:13:07;99579.62;;;12.10;100.00
70971;BME280;58632;51.718;19.446;2023-10-13T05:15:50;99586.70;;;12.15;100.00
70971;BME280;58632;51.718;19.446;2023-10-13T05:21:06;99588.60;;;12.18;100.00
70971;BME280;58632;51.718;19.446;2023-10-13T05:24:06;99584.93;;;12.20;100.00
70971;BME280;58632;51.718;19.446;2023-10-13T05:26:51;99584.66;;;12.22;100.00
70971;BME280;58632;51.718;19.446;2023-10-13T05:29:38;99586.63;;;12.26;100.00
70971;BME280;58632;51.718;19.446;2023-10-13T05:32:22;99587.78;;;12.28;100.00
70971;BME280;58632;51.718;19.446;2023-10-13T05:35:06;99587.80;;;12.36;100.00
70971;BME280;58632;51.718;19.446;2023-10-13T05:40:26;99590.17;;;12.45;100.00
70971;BME280;58632;51.718;19.446;2023-10-13T05:43:27;99593.08;;;12.52;100.00
70971;BME280;58632;51.718;19.446;2023-10-13T05:46:10;99595.02;;;12.59;100.00
70971;BME280;58632;51.718;19.446;2023-10-13T05:48:51;99597.91;;;12.60;100.00
70971;BME280;58632;51.718;19.446;2023-10-13T05:51:26;99600.51;;;12.58;100.00
70971;BME280;58632;51.718;19.446;2023-10-13T05:53:57;99602.15;;;12.58;100.00
70971;BME280;58632;51.718;19.446;2023-10-13T05:59:41;99605.71;;;12.65;100.00
70971;BME280;58632;51.718;19.446;2023-10-13T06:02:42;99603.70;;;12.76;100.00
70971;BME280;58632;51.718;19.446;2023-10-13T06:05:25;99608.15;;;12.84;100.00
70971;BME280;58632;51.718;19.446;2023-10-13T06:08:09;99602.50;;;12.82;100.00
70971;BME280;58632;51.718;19.446;2023-10-13T06:11:00;99608.82;;;12.74;100.00
70971;BME280;58632;51.718;19.446;2023-10-13T06:13:44;99606.86;;;12.68;100.00
70971;BME280;58632;51.718;19.446;2023-10-13T06:19:48;99619.02;;;12.71;100.00
70971;BME280;58632;51.718;19.446;2023-10-13T06:22:32;99623.50;;;12.74;100.00
70971;BME280;58632;51.718;19.446;2023-10-13T06:25:16;99624.21;;;12.77;100.00
70971;BME280;58632;51.718;19.446;2023-10-13T06:28:00;99629.27;;;12.78;100.00
70971;BME280;58632;51.718;19.446;2023-10-13T06:30:53;99632.95;;;12.79;100.00
70971;BME280;58632;51.718;19.446;2023-10-13T06:33:16;99631.39;;;12.75;100.00
70971;BME280;58632;51.718;19.446;2023-10-13T06:38:14;99625.20;;;12.78;100.00
70971;BME280;58632;51.718;19.446;2023-10-13T06:43:36;99624.80;;;12.87;100.00
70971;BME280;58632;51.718;19.446;2023-10-13T06:46:09;99626.42;;;12.86;100.00
70971;BME280;58632;51.718;19.446;2023-10-13T06:48:39;99626.83;;;12.87;100.00
70971;BME280;58632;51.718;19.446;2023-10-13T06:51:05;99629.91;;;12.87;100.00
70971;BME280;58632;51.718;19.446;2023-10-13T06:53:43;99630.81;;;12.88;100.00
70971;BME280;58632;51.718;19.446;2023-10-13T06:56:12;99634.98;;;12.86;100.00
70971;BME280;58632;51.718;19.446;2023-10-13T06:58:43;99636.45;;;12.83;100.00
70971;BME280;58632;51.718;19.446;2023-10-13T07:01:12;99637.00;;;12.81;100.00
70971;BME280;58632;51.718;19.446;2023-10-13T07:03:42;99642.71;;;12.85;100.00
70971;BME280;58632;51.718;19.446;2023-10-13T07:06:08;99643.97;;;12.94;100.00
70971;BME280;58632;51.718;19.446;2023-10-13T07:08:43;99642.77;;;13.00;100.00
70971;BME280;58632;51.718;19.446;2023-10-13T07:11:12;99644.45;;;13.02;100.00
70971;BME280;58632;51.718;19.446;2023-10-13T07:13:50;99641.65;;;13.02;100.00
70971;BME280;58632;51.718;19.446;2023-10-13T07:16:17;99642.50;;;13.06;100.00
70971;BME280;58632;51.718;19.446;2023-10-13T07:18:43;99641.10;;;13.09;100.00
70971;BME280;58632;51.718;19.446;2023-10-13T07:21:15;99638.61;;;13.15;100.00
70971;BME280;58632;51.718;19.446;2023-10-13T07:23:40;99640.10;;;13.29;100.00
70971;BME280;58632;51.718;19.446;2023-10-13T07:26:20;99641.53;;;13.46;100.00
70971;BME280;58632;51.718;19.446;2023-10-13T07:31:36;99643.13;;;13.70;100.00
70971;BME280;58632;51.718;19.446;2023-10-13T07:34:06;99639.02;;;13.72;100.00
70971;BME280;58632;51.718;19.446;2023-10-13T07:36:40;99632.38;;;13.73;100.00
70971;BME280;58632;51.718;19.446;2023-10-13T07:39:06;99628.98;;;13.78;100.00
70971;BME280;58632;51.718;19.446;2023-10-13T07:41:53;99625.87;;;13.87;100.00
70971;BME280;58632;51.718;19.446;2023-10-13T07:44:29;99622.55;;;13.97;100.00
70971;BME280;58632;51.718;19.446;2023-10-13T07:46:57;99622.46;;;14.10;100.00
70971;BME280;58632;51.718;19.446;2023-10-13T07:49:31;99618.73;;;14.26;100.00
70971;BME280;58632;51.718;19.446;2023-10-13T07:51:57;99623.41;;;14.42;100.00
70971;BME280;58632;51.718;19.446;2023-10-13T07:54:25;99622.17;;;14.53;100.00
70971;BME280;58632;51.718;19.446;2023-10-13T07:56:51;99620.63;;;14.66;100.00
70971;BME280;58632;51.718;19.446;2023-10-13T07:59:20;99621.09;;;14.69;100.00
70971;BME280;58632;51.718;19.446;2023-10-13T08:01:48;99619.85;;;14.72;100.00
70971;BME280;58632;51.718;19.446;2023-10-13T08:04:21;99613.87;;;14.78;100.00
70971;BME280;58632;51.718;19.446;2023-10-13T08:06:53;99616.34;;;14.83;100.00
70971;BME280;58632;51.718;19.446;2023-10-13T08:09:31;99613.35;;;14.82;100.00
70971;BME280;58632;51.718;19.446;2023-10-13T08:15:18;99607.36;;;14.86;100.00
70971;BME280;58632;51.718;19.446;2023-10-13T08:17:56;99606.20;;;14.92;100.00
70971;BME280;58632;51.718;19.446;2023-10-13T08:20:23;99604.48;;;15.00;100.00
70971;BME280;58632;51.718;19.446;2023-10-13T08:22:51;99601.48;;;15.12;100.00
70971;BME280;58632;51.718;19.446;2023-10-13T08:25:36;99603.41;;;15.27;100.00
70971;BME280;58632;51.718;19.446;2023-10-13T08:28:31;99604.67;;;15.48;100.00
70971;BME280;58632;51.718;19.446;2023-10-13T08:33:32;99602.08;;;15.68;100.00
70971;BME280;58632;51.718;19.446;2023-10-13T08:38:29;99596.39;;;15.85;100.00
70971;BME280;58632;51.718;19.446;2023-10-13T08:43:42;99595.05;;;16.16;100.00
70971;BME280;58632;51.718;19.446;2023-10-13T08:46:13;99589.25;;;16.38;100.00
70971;BME280;58632;51.718;19.446;2023-10-13T08:48:50;99587.28;;;16.56;100.00
70971;BME280;58632;51.718;19.446;2023-10-13T08:51:16;99586.56;;;16.64;100.00
70971;BME280;58632;51.718;19.446;2023-10-13T08:53:56;99583.69;;;16.80;100.00
70971;BME280;58632;51.718;19.446;2023-10-13T08:56:33;99576.71;;;16.87;100.00
70971;BME280;58632;51.718;19.446;2023-10-13T08:58:59;99571.73;;;16.96;100.00
70971;BME280;58632;51.718;19.446;2023-10-13T09:01:34;99567.19;;;17.18;100.00
70971;BME280;58632;51.718;19.446;2023-10-13T09:04:25;99563.44;;;17.44;100.00
70971;BME280;58632;51.718;19.446;2023-10-13T09:07:05;99565.02;;;17.66;100.00
70971;BME280;58632;51.718;19.446;2023-10-13T09:12:10;99567.64;;;18.08;100.00
70971;BME280;58632;51.718;19.446;2023-10-13T09:17:23;99569.84;;;18.28;100.00
70971;BME280;58632;51.718;19.446;2023-10-13T09:20:02;99569.27;;;18.32;100.00
70971;BME280;58632;51.718;19.446;2023-10-13T09:22:47;99569.02;;;18.33;100.00
70971;BME280;58632;51.718;19.446;2023-10-13T09:25:27;99563.96;;;18.40;100.00
70971;BME280;58632;51.718;19.446;2023-10-13T09:27:58;99560.33;;;18.50;100.00
70971;BME280;58632;51.718;19.446;2023-10-13T09:30:28;99564.52;;;18.65;100.00
70971;BME280;58632;51.718;19.446;2023-10-13T09:33:02;99563.98;;;18.84;100.00
70971;BME280;58632;51.718;19.446;2023-10-13T09:35:29;99561.10;;;19.08;100.00
70971;BME280;58632;51.718;19.446;2023-10-13T09:37:59;99562.65;;;19.13;100.00
70971;BME280;58632;51.718;19.446;2023-10-13T09:40:27;99558.09;;;19.19;100.00
70971;BME280;58632;51.718;19.446;2023-10-13T09:43:03;99558.27;;;19.22;100.00
70971;BME280;58632;51.718;19.446;2023-10-13T09:45:36;99562.65;;;19.24;100.00
70971;BME280;58632;51.718;19.446;2023-10-13T09:50:51;99552.96;;;19.47;100.00
70971;BME280;58632;51.718;19.446;2023-10-13T09:53:26;99551.17;;;19.53;100.00
70971;BME280;58632;51.718;19.446;2023-10-13T09:56:05;99555.18;;;19.60;100.00
70971;BME280;58632;51.718;19.446;2023-10-13T10:01:17;99551.02;;;19.53;100.00
70971;BME280;58632;51.718;19.446;2023-10-13T10:04:05;99550.09;;;19.44;100.00
70971;BME280;58632;51.718;19.446;2023-10-13T10:06:34;99540.63;;;19.40;100.00
70971;BME280;58632;51.718;19.446;2023-10-13T10:09:12;99533.19;;;19.42;100.00
70971;BME280;58632;51.718;19.446;2023-10-13T10:14:16;99537.80;;;19.60;100.00
70971;BME280;58632;51.718;19.446;2023-10-13T10:19:13;99530.41;;;19.85;100.00
70971;BME280;58632;51.718;19.446;2023-10-13T10:24:26;99513.15;;;19.99;100.00
70971;BME280;58632;51.718;19.446;2023-10-13T10:27:04;99514.91;;;20.05;100.00
70971;BME280;58632;51.718;19.446;2023-10-13T10:29:29;99508.48;;;20.06;100.00
70971;BME280;58632;51.718;19.446;2023-10-13T10:31:57;99511.50;;;20.07;100.00
70971;BME280;58632;51.718;19.446;2023-10-13T10:34:29;99510.15;;;20.06;100.00
70971;BME280;58632;51.718;19.446;2023-10-13T10:36:57;99502.84;;;20.03;100.00
70971;BME280;58632;51.718;19.446;2023-10-13T10:39:33;99500.30;;;20.05;100.00
70971;BME280;58632;51.718;19.446;2023-10-13T10:42:07;99488.79;;;20.06;100.00
70971;BME280;58632;51.718;19.446;2023-10-13T10:44:39;99485.70;;;20.14;100.00
70971;BME280;58632;51.718;19.446;2023-10-13T10:47:11;99479.23;;;20.31;100.00
70971;BME280;58632;51.718;19.446;2023-10-13T10:49:37;99481.70;;;20.45;100.00
70971;BME280;58632;51.718;19.446;2023-10-13T10:52:03;99471.73;;;20.60;100.00
70971;BME280;58632;51.718;19.446;2023-10-13T10:54:31;99470.54;;;20.68;100.00
70971;BME280;58632;51.718;19.446;2023-10-13T10:56:59;99470.28;;;20.80;100.00
70971;BME280;58632;51.718;19.446;2023-10-13T10:59:37;99470.91;;;20.92;100.00
70971;BME280;58632;51.718;19.446;2023-10-13T11:02:03;99466.46;;;20.88;100.00
70971;BME280;58632;51.718;19.446;2023-10-13T11:04:29;99469.40;;;20.89;100.00
70971;BME280;58632;51.718;19.446;2023-10-13T11:07:05;99455.28;;;21.46;100.00
70971;BME280;58632;51.718;19.446;2023-10-13T11:09:32;99458.90;;;21.76;100.00
70971;BME280;58632;51.718;19.446;2023-10-13T11:12:09;99461.14;;;22.02;100.00
70971;BME280;58632;51.718;19.446;2023-10-13T11:17:10;99453.30;;;21.48;100.00
70971;BME280;58632;51.718;19.446;2023-10-13T11:22:36;99444.54;;;21.38;100.00
70971;BME280;58632;51.718;19.446;2023-10-13T11:25:08;99440.27;;;21.36;100.00
70971;BME280;58632;51.718;19.446;2023-10-13T11:27:40;99438.03;;;21.38;100.00
70971;BME280;58632;51.718;19.446;2023-10-13T11:30:15;99440.18;;;21.36;100.00
70971;BME280;58632;51.718;19.446;2023-10-13T11:33:01;99437.08;;;21.44;100.00
70971;BME280;58632;51.718;19.446;2023-10-13T11:35:34;99435.12;;;21.54;100.00
70971;BME280;58632;51.718;19.446;2023-10-13T11:38:18;99435.80;;;21.62;100.00
70971;BME280;58632;51.718;19.446;2023-10-13T11:40:56;99432.59;;;21.67;100.00
70971;BME280;58632;51.718;19.446;2023-10-13T11:43:31;99426.91;;;21.73;100.00
70971;BME280;58632;51.718;19.446;2023-10-13T11:46:03;99422.77;;;21.72;100.00
70971;BME280;58632;51.718;19.446;2023-10-13T11:51:22;99411.30;;;21.58;100.00
70971;BME280;58632;51.718;19.446;2023-10-13T11:53:57;99407.58;;;21.70;100.00
70971;BME280;58632;51.718;19.446;2023-10-13T11:56:23;99410.75;;;21.85;100.00
70971;BME280;58632;51.718;19.446;2023-10-13T11:58:49;99415.09;;;21.95;100.00
70971;BME280;58632;51.718;19.446;2023-10-13T12:01:15;99411.16;;;22.09;100.00
70971;BME280;58632;51.718;19.446;2023-10-13T12:03:44;99409.98;;;22.20;100.00
70971;BME280;58632;51.718;19.446;2023-10-13T12:06:29;99409.95;;;22.28;100.00
70971;BME280;58632;51.718;19.446;2023-10-13T12:09:18;99405.92;;;22.20;99.62
70971;BME280;58632;51.718;19.446;2023-10-13T12:11:47;99409.13;;;22.14;100.00
70971;BME280;58632;51.718;19.446;2023-10-13T12:14:16;99413.89;;;22.15;100.00
70971;BME280;58632;51.718;19.446;2023-10-13T12:16:48;99410.45;;;22.22;100.00
70971;BME280;58632;51.718;19.446;2023-10-13T12:19:19;99402.46;;;22.25;100.00
70971;BME280;58632;51.718;19.446;2023-10-13T12:21:49;99401.79;;;22.22;99.96
70971;BME280;58632;51.718;19.446;2023-10-13T12:24:15;99386.59;;;22.15;100.00
70971;BME280;58632;51.718;19.446;2023-10-13T12:29:53;99375.27;;;21.91;100.00
70971;BME280;58632;51.718;19.446;2023-10-13T12:32:24;99380.15;;;21.89;100.00
70971;BME280;58632;51.718;19.446;2023-10-13T12:34:56;99380.83;;;21.95;100.00
70971;BME280;58632;51.718;19.446;2023-10-13T12:37:25;99381.51;;;22.01;100.00
70971;BME280;58632;51.718;19.446;2023-10-13T12:40:11;99375.59;;;22.05;100.00
70971;BME280;58632;51.718;19.446;2023-10-13T12:42:55;99372.45;;;22.08;99.40
70971;BME280;58632;51.718;19.446;2023-10-13T12:45:40;99373.77;;;21.92;99.80
70971;BME280;58632;51.718;19.446;2023-10-13T12:48:26;99366.52;;;21.80;100.00
70971;BME280;58632;51.718;19.446;2023-10-13T12:53:58;99364.93;;;21.54;100.00
70971;BME280;58632;51.718;19.446;2023-10-13T12:57:01;99351.41;;;21.51;100.00
70971;BME280;58632;51.718;19.446;2023-10-13T12:59:28;99355.12;;;21.56;100.00
70971;BME280;58632;51.718;19.446;2023-10-13T13:01:53;99349.84;;;21.62;100.00
70971;BME280;58632;51.718;19.446;2023-10-13T13:04:19;99348.77;;;21.64;100.00
70971;BME280;58632;51.718;19.446;2023-10-13T13:06:50;99346.09;;;21.62;100.00
70971;BME280;58632;51.718;19.446;2023-10-13T13:09:16;99350.98;;;21.58;100.00
70971;BME280;58632;51.718;19.446;2023-10-13T13:11:51;99353.45;;;21.55;100.00
70971;BME280;58632;51.718;19.446;2023-10-13T13:14:16;99353.39;;;21.51;100.00
70971;BME280;58632;51.718;19.446;2023-10-13T13:16:42;99354.23;;;21.45;100.00
70971;BME280;58632;51.718;19.446;2023-10-13T13:19:13;99352.76;;;21.32;100.00
70971;BME280;58632;51.718;19.446;2023-10-13T13:21:39;99352.98;;;21.16;100.00
70971;BME280;58632;51.718;19.446;2023-10-13T13:24:05;99353.11;;;21.05;100.00
70971;BME280;58632;51.718;19.446;2023-10-13T13:26:38;99353.48;;;20.93;100.00
70971;BME280;58632;51.718;19.446;2023-10-13T13:29:06;99357.23;;;20.85;100.00
70971;BME280;58632;51.718;19.446;2023-10-13T13:31:34;99357.24;;;20.79;100.00
70971;BME280;58632;51.718;19.446;2023-10-13T13:36:53;99348.77;;;20.53;100.00
70971;BME280;58632;51.718;19.446;2023-10-13T13:39:41;99346.00;;;20.45;100.00
70971;BME280;58632;51.718;19.446;2023-10-13T13:42:10;99334.48;;;20.41;100.00
70971;BME280;58632;51.718;19.446;2023-10-13T13:44:43;99330.11;;;20.44;100.00
70971;BME280;58632;51.718;19.446;2023-10-13T13:47:12;99331.69;;;20.48;100.00
70971;BME280;58632;51.718;19.446;2023-10-13T13:49:39;99329.48;;;20.50;100.00
70971;BME280;58632;51.718;19.446;2023-10-13T13:52:08;99325.34;;;20.49;100.00
70971;BME280;58632;51.718;19.446;2023-10-13T13:54:34;99319.14;;;20.49;100.00
70971;BME280;58632;51.718;19.446;2023-10-13T13:57:00;99310.64;;;20.46;100.00
70971;BME280;58632;51.718;19.446;2023-10-13T13:59:25;99306.37;;;20.40;100.00
70971;BME280;58632;51.718;19.446;2023-10-13T14:01:51;99301.92;;;20.35;100.00
70971;BME280;58632;51.718;19.446;2023-10-13T14:04:18;99298.75;;;20.28;100.00
70971;BME280;58632;51.718;19.446;2023-10-13T14:06:44;99290.42;;;20.20;100.00
70971;BME280;58632;51.718;19.446;2023-10-13T14:09:10;99288.61;;;20.11;100.00
70971;BME280;58632;51.718;19.446;2023-10-13T14:11:50;99281.71;;;20.05;100.00
70971;BME280;58632;51.718;19.446;2023-10-13T14:14:34;99279.65;;;20.04;100.00
70971;BME280;58632;51.718;19.446;2023-10-13T14:17:00;99278.52;;;20.05;100.00
70971;BME280;58632;51.718;19.446;2023-10-13T14:19:32;99276.95;;;20.04;100.00
70971;BME280;58632;51.718;19.446;2023-10-13T14:21:58;99270.76;;;20.00;100.00
70971;BME280;58632;51.718;19.446;2023-10-13T14:24:23;99268.70;;;19.94;100.00
70971;BME280;58632;51.718;19.446;2023-10-13T14:26:59;99271.15;;;19.89;100.00
70971;BME280;58632;51.718;19.446;2023-10-13T14:29:30;99274.33;;;19.86;100.00
70971;BME280;58632;51.718;19.446;2023-10-13T14:34:27;99267.02;;;19.74;100.00
70971;BME280;58632;51.718;19.446;2023-10-13T14:39:40;99272.06;;;19.61;100.00
70971;BME280;58632;51.718;19.446;2023-10-13T14:42:09;99270.73;;;19.58;100.00
70971;BME280;58632;51.718;19.446;2023-10-13T14:44:34;99264.52;;;19.58;100.00